sensor_id;sensor_type;location;lat;lon;timestamp;temperature;humidity
83405;SHT30;73331;48.168;20.776;2024-03-08T00:01:08;5.98;66.72
83405;SHT30;73331;48.168;20.776;2024-03-08T00:02:38;5.89;66.37
83405;SHT30;73331;48.168;20.776;2024-03-08T00:04:09;5.86;66.11
83405;SHT30;73331;48.168;20.776;2024-03-08T00:05:40;5.80;66.25
83405;SHT30;73331;48.168;20.776;2024-03-08T00:07:11;5.63;66.38
83405;SHT30;73331;48.168;20.776;2024-03-08T00:08:43;5.56;67.27
83405;SHT30;73331;48.168;20.776;2024-03-08T00:10:14;5.54;67.05
83405;SHT30;73331;48.168;20.776;2024-03-08T00:11:44;5.56;67.41
83405;SHT30;73331;48.168;20.776;2024-03-08T00:13:15;5.51;67.13
83405;SHT30;73331;48.168;20.776;2024-03-08T00:14:45;5.47;67.40
83405;SHT30;73331;48.168;20.776;2024-03-08T00:16:16;5.44;67.28
83405;SHT30;73331;48.168;20.776;2024-03-08T00:17:46;5.44;67.70
83405;SHT30;73331;48.168;20.776;2024-03-08T00:19:17;5.48;67.77
83405;SHT30;73331;48.168;20.776;2024-03-08T00:20:47;5.49;67.37
83405;SHT30;73331;48.168;20.776;2024-03-08T00:22:18;5.49;67.22
83405;SHT30;73331;48.168;20.776;2024-03-08T00:23:48;5.42;67.00
83405;SHT30;73331;48.168;20.776;2024-03-08T00:25:19;5.48;67.48
83405;SHT30;73331;48.168;20.776;2024-03-08T00:26:50;5.52;67.52
83405;SHT30;73331;48.168;20.776;2024-03-08T00:28:20;5.56;67.77
83405;SHT30;73331;48.168;20.776;2024-03-08T00:29:51;5.70;67.26
83405;SHT30;73331;48.168;20.776;2024-03-08T00:31:21;5.62;66.80
83405;SHT30;73331;48.168;20.776;2024-03-08T00:32:52;5.52;67.46
83405;SHT30;73331;48.168;20.776;2024-03-08T00:34:22;5.58;67.09
83405;SHT30;73331;48.168;20.776;2024-03-08T00:35:57;5.60;67.15
83405;SHT30;73331;48.168;20.776;2024-03-08T00:37:27;5.56;67.10
83405;SHT30;73331;48.168;20.776;2024-03-08T00:38:58;5.63;67.35
83405;SHT30;73331;48.168;20.776;2024-03-08T00:40:31;5.72;67.28
83405;SHT30;73331;48.168;20.776;2024-03-08T00:42:01;5.52;67.59
83405;SHT30;73331;48.168;20.776;2024-03-08T00:43:31;5.63;66.84
83405;SHT30;73331;48.168;20.776;2024-03-08T00:45:02;5.59;66.91
83405;SHT30;73331;48.168;20.776;2024-03-08T00:46:33;5.58;67.08
83405;SHT30;73331;48.168;20.776;2024-03-08T00:48:04;5.55;67.09
83405;SHT30;73331;48.168;20.776;2024-03-08T00:49:36;5.52;67.32
83405;SHT30;73331;48.168;20.776;2024-03-08T00:51:08;5.31;67.47
83405;SHT30;73331;48.168;20.776;2024-03-08T00:52:38;5.23;68.01
83405;SHT30;73331;48.168;20.776;2024-03-08T00:54:09;5.23;67.91
83405;SHT30;73331;48.168;20.776;2024-03-08T00:55:39;5.21;67.88
83405;SHT30;73331;48.168;20.776;2024-03-08T00:57:10;5.17;67.75
83405;SHT30;73331;48.168;20.776;2024-03-08T00:58:41;5.14;67.98
83405;SHT30;73331;48.168;20.776;2024-03-08T01:00:11;5.11;67.94
83405;SHT30;73331;48.168;20.776;2024-03-08T01:01:42;5.18;68.02
83405;SHT30;73331;48.168;20.776;2024-03-08T01:03:14;5.20;67.92
83405;SHT30;73331;48.168;20.776;2024-03-08T01:04:45;5.18;68.19
83405;SHT30;73331;48.168;20.776;2024-03-08T01:06:17;5.13;68.30
83405;SHT30;73331;48.168;20.776;2024-03-08T01:07:49;5.04;68.46
83405;SHT30;73331;48.168;20.776;2024-03-08T01:09:19;5.04;68.73
83405;SHT30;73331;48.168;20.776;2024-03-08T01:10:52;4.97;68.59
83405;SHT30;73331;48.168;20.776;2024-03-08T01:12:22;5.03;68.92
83405;SHT30;73331;48.168;20.776;2024-03-08T01:13:53;4.93;68.85
83405;SHT30;73331;48.168;20.776;2024-03-08T01:15:23;4.95;69.19
83405;SHT30;73331;48.168;20.776;2024-03-08T01:16:54;5.04;68.44
83405;SHT30;73331;48.168;20.776;2024-03-08T01:18:25;5.07;68.58
83405;SHT30;73331;48.168;20.776;2024-03-08T01:19:55;5.04;68.41
83405;SHT30;73331;48.168;20.776;2024-03-08T01:21:26;5.00;69.07
83405;SHT30;73331;48.168;20.776;2024-03-08T01:22:56;4.97;69.48
83405;SHT30;73331;48.168;20.776;2024-03-08T01:24:27;5.13;69.08
83405;SHT30;73331;48.168;20.776;2024-03-08T01:25:57;5.05;68.97
83405;SHT30;73331;48.168;20.776;2024-03-08T01:27:28;5.21;68.55
83405;SHT30;73331;48.168;20.776;2024-03-08T01:28:58;5.21;67.89
83405;SHT30;73331;48.168;20.776;2024-03-08T01:30:29;5.10;68.05
83405;SHT30;73331;48.168;20.776;2024-03-08T01:31:59;5.24;68.32
83405;SHT30;73331;48.168;20.776;2024-03-08T01:33:31;5.24;68.68
83405;SHT30;73331;48.168;20.776;2024-03-08T01:35:02;5.24;68.01
83405;SHT30;73331;48.168;20.776;2024-03-08T01:36:33;5.25;67.97
83405;SHT30;73331;48.168;20.776;2024-03-08T01:38:03;5.20;68.23
83405;SHT30;73331;48.168;20.776;2024-03-08T01:39:35;5.24;68.58
83405;SHT30;73331;48.168;20.776;2024-03-08T01:41:05;5.18;68.56
83405;SHT30;73331;48.168;20.776;2024-03-08T01:42:36;5.32;68.09
83405;SHT30;73331;48.168;20.776;2024-03-08T01:44:09;5.31;68.06
83405;SHT30;73331;48.168;20.776;2024-03-08T01:45:39;5.28;68.07
83405;SHT30;73331;48.168;20.776;2024-03-08T01:47:11;5.31;68.17
83405;SHT30;73331;48.168;20.776;2024-03-08T01:48:42;5.30;68.01
83405;SHT30;73331;48.168;20.776;2024-03-08T01:50:13;5.21;68.07
83405;SHT30;73331;48.168;20.776;2024-03-08T01:51:44;5.31;68.16
83405;SHT30;73331;48.168;20.776;2024-03-08T01:53:14;5.34;68.49
83405;SHT30;73331;48.168;20.776;2024-03-08T01:54:45;5.39;67.84
83405;SHT30;73331;48.168;20.776;2024-03-08T01:56:16;5.42;67.81
83405;SHT30;73331;48.168;20.776;2024-03-08T01:57:49;5.39;68.37
83405;SHT30;73331;48.168;20.776;2024-03-08T01:59:19;5.45;67.80
83405;SHT30;73331;48.168;20.776;2024-03-08T02:00:50;5.52;67.11
83405;SHT30;73331;48.168;20.776;2024-03-08T02:02:21;5.49;67.41
83405;SHT30;73331;48.168;20.776;2024-03-08T02:03:52;5.41;68.16
83405;SHT30;73331;48.168;20.776;2024-03-08T02:05:22;5.41;67.90
83405;SHT30;73331;48.168;20.776;2024-03-08T02:06:53;5.25;69.09
83405;SHT30;73331;48.168;20.776;2024-03-08T02:08:24;4.98;69.52
83405;SHT30;73331;48.168;20.776;2024-03-08T02:09:55;5.15;69.67
83405;SHT30;73331;48.168;20.776;2024-03-08T02:11:25;5.03;69.76
83405;SHT30;73331;48.168;20.776;2024-03-08T02:12:56;4.80;70.24
83405;SHT30;73331;48.168;20.776;2024-03-08T02:14:26;4.63;71.53
83405;SHT30;73331;48.168;20.776;2024-03-08T02:15:58;4.64;71.57
83405;SHT30;73331;48.168;20.776;2024-03-08T02:17:32;4.93;71.16
83405;SHT30;73331;48.168;20.776;2024-03-08T02:19:05;5.38;68.57
83405;SHT30;73331;48.168;20.776;2024-03-08T02:20:39;5.65;66.97
83405;SHT30;73331;48.168;20.776;2024-03-08T02:22:10;5.76;66.73
83405;SHT30;73331;48.168;20.776;2024-03-08T02:23:40;5.56;67.12
83405;SHT30;73331;48.168;20.776;2024-03-08T02:25:11;5.21;68.37
83405;SHT30;73331;48.168;20.776;2024-03-08T02:26:42;5.08;68.91
83405;SHT30;73331;48.168;20.776;2024-03-08T02:28:13;5.11;68.82
83405;SHT30;73331;48.168;20.776;2024-03-08T02:29:44;5.24;69.31
83405;SHT30;73331;48.168;20.776;2024-03-08T02:31:15;5.32;69.16
83405;SHT30;73331;48.168;20.776;2024-03-08T02:32:46;5.44;67.55
83405;SHT30;73331;48.168;20.776;2024-03-08T02:34:17;5.59;67.28
83405;SHT30;73331;48.168;20.776;2024-03-08T02:35:49;5.08;69.66
83405;SHT30;73331;48.168;20.776;2024-03-08T02:37:19;4.70;71.35
83405;SHT30;73331;48.168;20.776;2024-03-08T02:38:50;4.91;70.88
83405;SHT30;73331;48.168;20.776;2024-03-08T02:40:20;5.18;69.03
83405;SHT30;73331;48.168;20.776;2024-03-08T02:41:52;5.48;67.60
83405;SHT30;73331;48.168;20.776;2024-03-08T02:43:22;5.48;67.54
83405;SHT30;73331;48.168;20.776;2024-03-08T02:44:54;5.62;67.20
83405;SHT30;73331;48.168;20.776;2024-03-08T02:46:25;5.55;67.36
83405;SHT30;73331;48.168;20.776;2024-03-08T02:47:55;5.52;67.19
83405;SHT30;73331;48.168;20.776;2024-03-08T02:49:26;5.34;67.76
83405;SHT30;73331;48.168;20.776;2024-03-08T02:50:57;5.39;67.87
83405;SHT30;73331;48.168;20.776;2024-03-08T02:52:27;5.35;68.07
83405;SHT30;73331;48.168;20.776;2024-03-08T02:53:58;5.30;67.95
83405;SHT30;73331;48.168;20.776;2024-03-08T02:55:28;5.21;68.34
83405;SHT30;73331;48.168;20.776;2024-03-08T02:56:59;5.14;68.10
83405;SHT30;73331;48.168;20.776;2024-03-08T02:58:30;5.13;68.75
83405;SHT30;73331;48.168;20.776;2024-03-08T03:00:00;5.15;68.29
83405;SHT30;73331;48.168;20.776;2024-03-08T03:01:31;5.17;68.72
83405;SHT30;73331;48.168;20.776;2024-03-08T03:03:02;5.01;69.59
83405;SHT30;73331;48.168;20.776;2024-03-08T03:04:33;4.77;70.78
83405;SHT30;73331;48.168;20.776;2024-03-08T03:06:05;4.62;71.60
83405;SHT30;73331;48.168;20.776;2024-03-08T03:07:37;5.01;70.59
83405;SHT30;73331;48.168;20.776;2024-03-08T03:09:08;4.72;71.34
83405;SHT30;73331;48.168;20.776;2024-03-08T03:10:40;4.54;72.28
83405;SHT30;73331;48.168;20.776;2024-03-08T03:12:11;4.48;72.02
83405;SHT30;73331;48.168;20.776;2024-03-08T03:13:41;4.45;71.99
83405;SHT30;73331;48.168;20.776;2024-03-08T03:15:13;4.54;72.52
83405;SHT30;73331;48.168;20.776;2024-03-08T03:16:43;4.84;71.43
83405;SHT30;73331;48.168;20.776;2024-03-08T03:18:14;4.93;70.75
83405;SHT30;73331;48.168;20.776;2024-03-08T03:19:46;5.24;69.31
83405;SHT30;73331;48.168;20.776;2024-03-08T03:21:16;5.03;70.18
83405;SHT30;73331;48.168;20.776;2024-03-08T03:22:47;5.07;70.20
83405;SHT30;73331;48.168;20.776;2024-03-08T03:24:21;5.38;68.56
83405;SHT30;73331;48.168;20.776;2024-03-08T03:25:53;5.49;68.14
83405;SHT30;73331;48.168;20.776;2024-03-08T03:27:27;5.54;68.07
83405;SHT30;73331;48.168;20.776;2024-03-08T03:28:58;5.65;67.87
83405;SHT30;73331;48.168;20.776;2024-03-08T03:30:31;5.68;67.45
83405;SHT30;73331;48.168;20.776;2024-03-08T03:32:03;5.62;67.50
83405;SHT30;73331;48.168;20.776;2024-03-08T03:33:34;5.63;67.60
83405;SHT30;73331;48.168;20.776;2024-03-08T03:35:06;5.65;67.53
83405;SHT30;73331;48.168;20.776;2024-03-08T03:36:37;5.68;67.46
83405;SHT30;73331;48.168;20.776;2024-03-08T03:38:12;5.70;67.67
83405;SHT30;73331;48.168;20.776;2024-03-08T03:39:44;5.58;68.02
83405;SHT30;73331;48.168;20.776;2024-03-08T03:41:23;5.39;68.83
83405;SHT30;73331;48.168;20.776;2024-03-08T03:42:53;5.45;68.25
83405;SHT30;73331;48.168;20.776;2024-03-08T03:44:24;5.42;68.01
83405;SHT30;73331;48.168;20.776;2024-03-08T03:45:55;5.11;69.31
83405;SHT30;73331;48.168;20.776;2024-03-08T03:47:26;4.67;71.04
83405;SHT30;73331;48.168;20.776;2024-03-08T03:48:57;4.50;72.34
83405;SHT30;73331;48.168;20.776;2024-03-08T03:50:27;4.52;72.26
83405;SHT30;73331;48.168;20.776;2024-03-08T03:51:58;4.64;71.55
83405;SHT30;73331;48.168;20.776;2024-03-08T03:53:28;4.69;71.26
83405;SHT30;73331;48.168;20.776;2024-03-08T03:54:59;4.69;71.72
83405;SHT30;73331;48.168;20.776;2024-03-08T03:56:29;4.53;72.64
83405;SHT30;73331;48.168;20.776;2024-03-08T03:58:03;4.73;71.27
83405;SHT30;73331;48.168;20.776;2024-03-08T03:59:34;4.93;70.80
83405;SHT30;73331;48.168;20.776;2024-03-08T04:01:05;4.60;72.22
83405;SHT30;73331;48.168;20.776;2024-03-08T04:02:39;4.40;73.04
83405;SHT30;73331;48.168;20.776;2024-03-08T04:04:09;4.38;72.84
83405;SHT30;73331;48.168;20.776;2024-03-08T04:05:40;4.28;73.51
83405;SHT30;73331;48.168;20.776;2024-03-08T04:07:11;4.25;73.50
83405;SHT30;73331;48.168;20.776;2024-03-08T04:08:41;4.28;73.87
83405;SHT30;73331;48.168;20.776;2024-03-08T04:10:12;4.45;73.50
83405;SHT30;73331;48.168;20.776;2024-03-08T04:11:42;4.77;72.33
83405;SHT30;73331;48.168;20.776;2024-03-08T04:13:13;4.98;71.75
83405;SHT30;73331;48.168;20.776;2024-03-08T04:14:45;5.28;70.32
83405;SHT30;73331;48.168;20.776;2024-03-08T04:16:16;5.38;69.51
83405;SHT30;73331;48.168;20.776;2024-03-08T04:17:46;5.34;69.59
83405;SHT30;73331;48.168;20.776;2024-03-08T04:19:17;5.27;69.29
83405;SHT30;73331;48.168;20.776;2024-03-08T04:20:47;5.31;69.06
83405;SHT30;73331;48.168;20.776;2024-03-08T04:22:18;5.35;69.34
83405;SHT30;73331;48.168;20.776;2024-03-08T04:23:49;5.34;68.69
83405;SHT30;73331;48.168;20.776;2024-03-08T04:25:19;5.37;69.01
83405;SHT30;73331;48.168;20.776;2024-03-08T04:26:50;5.28;68.87
83405;SHT30;73331;48.168;20.776;2024-03-08T04:28:21;5.20;68.43
83405;SHT30;73331;48.168;20.776;2024-03-08T04:29:52;5.14;68.84
83405;SHT30;73331;48.168;20.776;2024-03-08T04:31:22;4.98;69.23
83405;SHT30;73331;48.168;20.776;2024-03-08T04:32:53;4.69;70.13
83405;SHT30;73331;48.168;20.776;2024-03-08T04:34:23;4.84;70.29
83405;SHT30;73331;48.168;20.776;2024-03-08T04:35:54;4.93;69.41
83405;SHT30;73331;48.168;20.776;2024-03-08T04:37:24;4.95;69.76
83405;SHT30;73331;48.168;20.776;2024-03-08T04:38:55;4.88;70.68
83405;SHT30;73331;48.168;20.776;2024-03-08T04:40:25;4.74;71.91
83405;SHT30;73331;48.168;20.776;2024-03-08T04:42:02;4.97;70.91
83405;SHT30;73331;48.168;20.776;2024-03-08T04:43:40;5.05;69.88
83405;SHT30;73331;48.168;20.776;2024-03-08T04:45:10;5.07;70.37
83405;SHT30;73331;48.168;20.776;2024-03-08T04:46:41;5.11;70.31
83405;SHT30;73331;48.168;20.776;2024-03-08T04:48:12;5.14;69.84
83405;SHT30;73331;48.168;20.776;2024-03-08T04:49:42;5.18;69.88
83405;SHT30;73331;48.168;20.776;2024-03-08T04:51:13;5.18;69.73
83405;SHT30;73331;48.168;20.776;2024-03-08T04:52:43;5.08;69.52
83405;SHT30;73331;48.168;20.776;2024-03-08T04:54:13;5.14;69.84
83405;SHT30;73331;48.168;20.776;2024-03-08T04:55:44;5.05;69.62
83405;SHT30;73331;48.168;20.776;2024-03-08T04:57:15;5.07;69.59
83405;SHT30;73331;48.168;20.776;2024-03-08T04:58:45;5.11;69.13
83405;SHT30;73331;48.168;20.776;2024-03-08T05:00:18;5.15;69.76
83405;SHT30;73331;48.168;20.776;2024-03-08T05:01:49;5.14;69.87
83405;SHT30;73331;48.168;20.776;2024-03-08T05:03:19;5.13;69.49
83405;SHT30;73331;48.168;20.776;2024-03-08T05:04:51;5.14;69.23
83405;SHT30;73331;48.168;20.776;2024-03-08T05:06:22;5.14;70.29
83405;SHT30;73331;48.168;20.776;2024-03-08T05:07:53;5.07;69.58
83405;SHT30;73331;48.168;20.776;2024-03-08T05:09:24;4.98;70.25
83405;SHT30;73331;48.168;20.776;2024-03-08T05:10:54;5.05;70.81
83405;SHT30;73331;48.168;20.776;2024-03-08T05:12:25;5.07;69.91
83405;SHT30;73331;48.168;20.776;2024-03-08T05:13:56;5.07;70.63
83405;SHT30;73331;48.168;20.776;2024-03-08T05:15:29;5.11;69.41
83405;SHT30;73331;48.168;20.776;2024-03-08T05:16:59;5.11;70.37
83405;SHT30;73331;48.168;20.776;2024-03-08T05:18:30;5.13;69.67
83405;SHT30;73331;48.168;20.776;2024-03-08T05:20:02;5.15;69.89
83405;SHT30;73331;48.168;20.776;2024-03-08T05:21:34;5.14;69.11
83405;SHT30;73331;48.168;20.776;2024-03-08T05:23:04;5.14;70.19
83405;SHT30;73331;48.168;20.776;2024-03-08T05:24:35;5.17;69.88
83405;SHT30;73331;48.168;20.776;2024-03-08T05:26:06;5.17;69.84
83405;SHT30;73331;48.168;20.776;2024-03-08T05:27:36;5.14;69.16
83405;SHT30;73331;48.168;20.776;2024-03-08T05:29:10;5.18;69.80
83405;SHT30;73331;48.168;20.776;2024-03-08T05:30:41;5.15;69.86
83405;SHT30;73331;48.168;20.776;2024-03-08T05:32:11;5.15;70.29
83405;SHT30;73331;48.168;20.776;2024-03-08T05:33:42;5.20;70.40
83405;SHT30;73331;48.168;20.776;2024-03-08T05:35:13;5.24;70.16
83405;SHT30;73331;48.168;20.776;2024-03-08T05:36:46;5.31;70.38
83405;SHT30;73331;48.168;20.776;2024-03-08T05:38:17;5.32;69.45
83405;SHT30;73331;48.168;20.776;2024-03-08T05:39:47;5.30;69.87
83405;SHT30;73331;48.168;20.776;2024-03-08T05:41:18;5.25;69.94
83405;SHT30;73331;48.168;20.776;2024-03-08T05:42:49;5.24;70.28
83405;SHT30;73331;48.168;20.776;2024-03-08T05:44:19;5.24;70.12
83405;SHT30;73331;48.168;20.776;2024-03-08T05:45:50;5.27;69.32
83405;SHT30;73331;48.168;20.776;2024-03-08T05:47:20;5.30;68.97
83405;SHT30;73331;48.168;20.776;2024-03-08T05:48:51;5.25;68.77
83405;SHT30;73331;48.168;20.776;2024-03-08T05:50:21;5.20;69.03
83405;SHT30;73331;48.168;20.776;2024-03-08T05:51:52;5.11;68.98
83405;SHT30;73331;48.168;20.776;2024-03-08T05:53:24;5.08;69.67
83405;SHT30;73331;48.168;20.776;2024-03-08T05:54:54;5.01;69.45
83405;SHT30;73331;48.168;20.776;2024-03-08T05:56:25;4.97;69.12
83405;SHT30;73331;48.168;20.776;2024-03-08T05:57:55;5.00;69.61
83405;SHT30;73331;48.168;20.776;2024-03-08T05:59:27;5.04;70.04
83405;SHT30;73331;48.168;20.776;2024-03-08T06:00:57;5.00;70.88
83405;SHT30;73331;48.168;20.776;2024-03-08T06:02:28;5.13;70.23
83405;SHT30;73331;48.168;20.776;2024-03-08T06:03:58;5.18;69.86
83405;SHT30;73331;48.168;20.776;2024-03-08T06:05:29;5.24;70.18
83405;SHT30;73331;48.168;20.776;2024-03-08T06:06:59;5.18;69.59
83405;SHT30;73331;48.168;20.776;2024-03-08T06:08:30;5.18;69.92
83405;SHT30;73331;48.168;20.776;2024-03-08T06:10:01;5.15;69.93
83405;SHT30;73331;48.168;20.776;2024-03-08T06:11:31;5.14;70.27
83405;SHT30;73331;48.168;20.776;2024-03-08T06:13:02;5.17;70.27
83405;SHT30;73331;48.168;20.776;2024-03-08T06:14:32;5.21;70.56
83405;SHT30;73331;48.168;20.776;2024-03-08T06:16:03;5.23;70.40
83405;SHT30;73331;48.168;20.776;2024-03-08T06:17:35;5.39;70.09
83405;SHT30;73331;48.168;20.776;2024-03-08T06:19:06;5.37;69.51
83405;SHT30;73331;48.168;20.776;2024-03-08T06:20:36;5.44;70.40
83405;SHT30;73331;48.168;20.776;2024-03-08T06:22:07;5.54;69.81
83405;SHT30;73331;48.168;20.776;2024-03-08T06:23:38;5.42;69.59
83405;SHT30;73331;48.168;20.776;2024-03-08T06:25:09;5.48;68.78
83405;SHT30;73331;48.168;20.776;2024-03-08T06:26:41;5.51;69.26
83405;SHT30;73331;48.168;20.776;2024-03-08T06:28:11;5.49;68.46
83405;SHT30;73331;48.168;20.776;2024-03-08T06:29:42;5.58;68.30
83405;SHT30;73331;48.168;20.776;2024-03-08T06:31:12;5.52;68.74
83405;SHT30;73331;48.168;20.776;2024-03-08T06:32:43;5.42;68.53
83405;SHT30;73331;48.168;20.776;2024-03-08T06:34:13;5.48;68.02
83405;SHT30;73331;48.168;20.776;2024-03-08T06:35:45;5.41;68.91
83405;SHT30;73331;48.168;20.776;2024-03-08T06:37:16;5.62;68.02
83405;SHT30;73331;48.168;20.776;2024-03-08T06:38:47;5.66;67.98
83405;SHT30;73331;48.168;20.776;2024-03-08T06:40:18;5.68;67.81
83405;SHT30;73331;48.168;20.776;2024-03-08T06:41:48;5.49;69.35
83405;SHT30;73331;48.168;20.776;2024-03-08T06:43:21;5.54;68.40
83405;SHT30;73331;48.168;20.776;2024-03-08T06:44:52;5.62;68.55
83405;SHT30;73331;48.168;20.776;2024-03-08T06:46:25;5.73;68.04
83405;SHT30;73331;48.168;20.776;2024-03-08T06:47:56;5.73;68.04
83405;SHT30;73331;48.168;20.776;2024-03-08T06:49:26;5.54;68.85
83405;SHT30;73331;48.168;20.776;2024-03-08T06:50:57;5.08;72.10
83405;SHT30;73331;48.168;20.776;2024-03-08T06:52:27;4.87;72.25
83405;SHT30;73331;48.168;20.776;2024-03-08T06:53:58;4.98;72.51
83405;SHT30;73331;48.168;20.776;2024-03-08T06:55:28;5.01;73.07
83405;SHT30;73331;48.168;20.776;2024-03-08T06:56:59;5.15;71.28
83405;SHT30;73331;48.168;20.776;2024-03-08T06:58:30;5.15;71.29
83405;SHT30;73331;48.168;20.776;2024-03-08T07:00:01;5.03;71.91
83405;SHT30;73331;48.168;20.776;2024-03-08T07:01:31;4.85;73.68
83405;SHT30;73331;48.168;20.776;2024-03-08T07:03:02;4.90;73.24
83405;SHT30;73331;48.168;20.776;2024-03-08T07:04:33;4.95;74.13
83405;SHT30;73331;48.168;20.776;2024-03-08T07:06:04;4.90;74.07
83405;SHT30;73331;48.168;20.776;2024-03-08T07:07:37;4.93;74.78
83405;SHT30;73331;48.168;20.776;2024-03-08T07:09:08;4.98;75.40
83405;SHT30;73331;48.168;20.776;2024-03-08T07:10:38;4.90;76.57
83405;SHT30;73331;48.168;20.776;2024-03-08T07:12:12;4.88;76.51
83405;SHT30;73331;48.168;20.776;2024-03-08T07:13:47;4.91;77.16
83405;SHT30;73331;48.168;20.776;2024-03-08T07:15:17;4.88;76.83
83405;SHT30;73331;48.168;20.776;2024-03-08T07:16:50;4.81;76.92
83405;SHT30;73331;48.168;20.776;2024-03-08T07:18:21;4.83;76.16
83405;SHT30;73331;48.168;20.776;2024-03-08T07:19:52;4.84;76.51
83405;SHT30;73331;48.168;20.776;2024-03-08T07:21:24;4.85;76.96
83405;SHT30;73331;48.168;20.776;2024-03-08T07:22:55;4.88;76.24
83405;SHT30;73331;48.168;20.776;2024-03-08T07:24:25;4.80;76.45
83405;SHT30;73331;48.168;20.776;2024-03-08T07:26:20;4.76;75.87
83405;SHT30;73331;48.168;20.776;2024-03-08T07:27:51;4.74;76.38
83405;SHT30;73331;48.168;20.776;2024-03-08T07:29:23;4.72;76.22
83405;SHT30;73331;48.168;20.776;2024-03-08T07:30:53;4.81;76.18
83405;SHT30;73331;48.168;20.776;2024-03-08T07:32:32;4.81;76.57
83405;SHT30;73331;48.168;20.776;2024-03-08T07:34:05;4.91;75.49
83405;SHT30;73331;48.168;20.776;2024-03-08T07:35:38;4.98;74.25
83405;SHT30;73331;48.168;20.776;2024-03-08T07:37:09;4.95;74.52
83405;SHT30;73331;48.168;20.776;2024-03-08T07:38:41;4.97;74.48
83405;SHT30;73331;48.168;20.776;2024-03-08T07:40:12;5.34;73.32
83405;SHT30;73331;48.168;20.776;2024-03-08T07:41:44;5.18;73.28
83405;SHT30;73331;48.168;20.776;2024-03-08T07:43:14;5.03;73.97
83405;SHT30;73331;48.168;20.776;2024-03-08T07:44:45;5.07;74.19
83405;SHT30;73331;48.168;20.776;2024-03-08T07:46:18;5.18;74.00
83405;SHT30;73331;48.168;20.776;2024-03-08T07:47:49;5.14;73.69
83405;SHT30;73331;48.168;20.776;2024-03-08T07:49:21;5.31;73.81
83405;SHT30;73331;48.168;20.776;2024-03-08T07:50:51;5.34;73.94
83405;SHT30;73331;48.168;20.776;2024-03-08T07:52:22;5.32;73.28
83405;SHT30;73331;48.168;20.776;2024-03-08T07:53:52;5.28;73.72
83405;SHT30;73331;48.168;20.776;2024-03-08T07:55:23;5.38;73.50
83405;SHT30;73331;48.168;20.776;2024-03-08T07:56:54;5.24;73.50
83405;SHT30;73331;48.168;20.776;2024-03-08T07:58:24;5.25;73.82
83405;SHT30;73331;48.168;20.776;2024-03-08T07:59:55;5.31;73.12
83405;SHT30;73331;48.168;20.776;2024-03-08T08:01:26;5.24;74.16
83405;SHT30;73331;48.168;20.776;2024-03-08T08:02:57;5.25;73.99
83405;SHT30;73331;48.168;20.776;2024-03-08T08:04:27;5.25;73.52
83405;SHT30;73331;48.168;20.776;2024-03-08T08:05:58;5.48;73.47
83405;SHT30;73331;48.168;20.776;2024-03-08T08:07:28;5.86;71.79
83405;SHT30;73331;48.168;20.776;2024-03-08T08:08:59;5.35;73.55
83405;SHT30;73331;48.168;20.776;2024-03-08T08:10:30;5.34;74.56
83405;SHT30;73331;48.168;20.776;2024-03-08T08:12:03;5.34;73.99
83405;SHT30;73331;48.168;20.776;2024-03-08T08:13:34;5.37;73.89
83405;SHT30;73331;48.168;20.776;2024-03-08T08:15:07;5.34;74.66
83405;SHT30;73331;48.168;20.776;2024-03-08T08:16:37;5.37;74.63
83405;SHT30;73331;48.168;20.776;2024-03-08T08:18:08;5.34;75.00
83405;SHT30;73331;48.168;20.776;2024-03-08T08:19:43;5.32;73.39
83405;SHT30;73331;48.168;20.776;2024-03-08T08:21:13;5.42;72.68
83405;SHT30;73331;48.168;20.776;2024-03-08T08:22:44;5.35;73.98
83405;SHT30;73331;48.168;20.776;2024-03-08T08:24:14;5.35;73.30
83405;SHT30;73331;48.168;20.776;2024-03-08T08:25:46;5.27;73.61
83405;SHT30;73331;48.168;20.776;2024-03-08T08:27:16;5.28;73.94
83405;SHT30;73331;48.168;20.776;2024-03-08T08:28:47;5.35;73.48
83405;SHT30;73331;48.168;20.776;2024-03-08T08:30:17;5.44;73.42
83405;SHT30;73331;48.168;20.776;2024-03-08T08:31:48;5.42;73.41
83405;SHT30;73331;48.168;20.776;2024-03-08T08:33:20;5.42;73.57
83405;SHT30;73331;48.168;20.776;2024-03-08T08:34:50;5.39;73.59
83405;SHT30;73331;48.168;20.776;2024-03-08T08:36:21;5.38;73.45
83405;SHT30;73331;48.168;20.776;2024-03-08T08:37:51;6.00;71.03
83405;SHT30;73331;48.168;20.776;2024-03-08T08:39:22;5.56;72.80
83405;SHT30;73331;48.168;20.776;2024-03-08T08:40:53;5.60;72.43
83405;SHT30;73331;48.168;20.776;2024-03-08T08:42:24;5.32;73.72
83405;SHT30;73331;48.168;20.776;2024-03-08T08:43:54;5.21;74.17
83405;SHT30;73331;48.168;20.776;2024-03-08T08:45:25;5.38;74.19
83405;SHT30;73331;48.168;20.776;2024-03-08T08:46:56;5.48;73.24
83405;SHT30;73331;48.168;20.776;2024-03-08T08:48:27;5.41;73.52
83405;SHT30;73331;48.168;20.776;2024-03-08T08:49:59;5.45;73.62
83405;SHT30;73331;48.168;20.776;2024-03-08T08:51:31;5.42;73.90
83405;SHT30;73331;48.168;20.776;2024-03-08T08:53:04;5.44;73.99
83405;SHT30;73331;48.168;20.776;2024-03-08T08:54:34;5.42;73.82
83405;SHT30;73331;48.168;20.776;2024-03-08T08:56:06;5.39;73.78
83405;SHT30;73331;48.168;20.776;2024-03-08T08:57:38;5.42;74.27
83405;SHT30;73331;48.168;20.776;2024-03-08T08:59:08;5.55;74.04
83405;SHT30;73331;48.168;20.776;2024-03-08T09:00:39;5.51;74.06
83405;SHT30;73331;48.168;20.776;2024-03-08T09:02:09;5.51;73.66
83405;SHT30;73331;48.168;20.776;2024-03-08T09:03:40;5.52;73.79
83405;SHT30;73331;48.168;20.776;2024-03-08T09:05:11;5.49;74.00
83405;SHT30;73331;48.168;20.776;2024-03-08T09:06:42;5.59;73.93
83405;SHT30;73331;48.168;20.776;2024-03-08T09:08:12;5.63;73.51
83405;SHT30;73331;48.168;20.776;2024-03-08T09:09:43;5.59;72.77
83405;SHT30;73331;48.168;20.776;2024-03-08T09:11:14;5.55;73.73
83405;SHT30;73331;48.168;20.776;2024-03-08T09:12:46;5.58;72.98
83405;SHT30;73331;48.168;20.776;2024-03-08T09:14:16;5.56;72.69
83405;SHT30;73331;48.168;20.776;2024-03-08T09:15:47;5.70;72.15
83405;SHT30;73331;48.168;20.776;2024-03-08T09:17:17;5.68;72.68
83405;SHT30;73331;48.168;20.776;2024-03-08T09:18:50;5.76;72.59
83405;SHT30;73331;48.168;20.776;2024-03-08T09:20:21;5.73;72.80
83405;SHT30;73331;48.168;20.776;2024-03-08T09:21:51;5.75;71.94
83405;SHT30;73331;48.168;20.776;2024-03-08T09:23:22;5.82;71.76
83405;SHT30;73331;48.168;20.776;2024-03-08T09:24:52;5.79;70.98
83405;SHT30;73331;48.168;20.776;2024-03-08T09:26:23;6.20;69.99
83405;SHT30;73331;48.168;20.776;2024-03-08T09:27:53;6.78;67.49
83405;SHT30;73331;48.168;20.776;2024-03-08T09:29:25;6.31;69.50
83405;SHT30;73331;48.168;20.776;2024-03-08T09:30:55;6.00;70.65
83405;SHT30;73331;48.168;20.776;2024-03-08T09:32:26;6.10;71.07
83405;SHT30;73331;48.168;20.776;2024-03-08T09:33:56;6.31;69.19
83405;SHT30;73331;48.168;20.776;2024-03-08T09:35:27;6.37;69.61